sensor_id;sensor_type;location;lat;lon;timestamp;pressure;altitude;pressure_sealevel;temperature;humidity
48053;BME280;33824;51.600;5.718;2023-09-19T00:01:57;100594.72;;;15.99;100.00
48053;BME280;33824;51.600;5.718;2023-09-19T00:04:22;100591.19;;;15.99;100.00
48053;BME280;33824;51.600;5.718;2023-09-19T00:06:54;100603.22;;;15.96;100.00
48053;BME280;33824;51.600;5.718;2023-09-19T00:09:20;100603.81;;;15.98;100.00
48053;BME280;33824;51.600;5.718;2023-09-19T00:11:45;100599.09;;;15.87;100.00
48053;BME280;33824;51.600;5.718;2023-09-19T00:14:13;100600.97;;;15.93;100.00
48053;BME280;33824;51.600;5.718;2023-09-19T00:16:39;100606.34;;;15.87;100.00
48053;BME280;33824;51.600;5.718;2023-09-19T00:19:06;100616.09;;;15.81;100.00
48053;BME280;33824;51.600;5.718;2023-09-19T00:21:32;100605.78;;;15.78;100.00
48053;BME280;33824;51.600;5.718;2023-09-19T00:23:58;100612.00;;;15.78;100.00
48053;BME280;33824;51.600;5.718;2023-09-19T00:26:23;100614.06;;;15.76;100.00
48053;BME280;33824;51.600;5.718;2023-09-19T00:28:52;100620.50;;;15.69;100.00
48053;BME280;33824;51.600;5.718;2023-09-19T00:31:18;100618.19;;;15.72;100.00
48053;BME280;33824;51.600;5.718;2023-09-19T00:33:44;100627.72;;;15.68;100.00
48053;BME280;33824;51.600;5.718;2023-09-19T00:36:09;100626.50;;;15.64;100.00
48053;BME280;33824;51.600;5.718;2023-09-19T00:38:35;100639.09;;;15.64;100.00
48053;BME280;33824;51.600;5.718;2023-09-19T00:41:00;100641.19;;;15.62;100.00
48053;BME280;33824;51.600;5.718;2023-09-19T00:43:26;100640.16;;;15.56;100.00
48053;BME280;33824;51.600;5.718;2023-09-19T00:45:54;100644.09;;;15.60;100.00
48053;BME280;33824;51.600;5.718;2023-09-19T00:48:21;100638.50;;;15.62;100.00
48053;BME280;33824;51.600;5.718;2023-09-19T00:50:48;100649.69;;;15.59;100.00
48053;BME280;33824;51.600;5.718;2023-09-19T00:53:18;100641.41;;;15.54;100.00
48053;BME280;33824;51.600;5.718;2023-09-19T00:55:45;100651.56;;;15.52;100.00
48053;BME280;33824;51.600;5.718;2023-09-19T00:58:11;100651.13;;;15.55;100.00
48053;BME280;33824;51.600;5.718;2023-09-19T01:00:37;100652.16;;;15.54;100.00
48053;BME280;33824;51.600;5.718;2023-09-19T01:03:04;100661.66;;;15.56;100.00
48053;BME280;33824;51.600;5.718;2023-09-19T01:05:36;100661.25;;;15.53;100.00
48053;BME280;33824;51.600;5.718;2023-09-19T01:08:01;100666.63;;;15.53;100.00
48053;BME280;33824;51.600;5.718;2023-09-19T01:10:27;100673.06;;;15.52;100.00
48053;BME280;33824;51.600;5.718;2023-09-19T01:13:09;100673.47;;;15.35;100.00
48053;BME280;33824;51.600;5.718;2023-09-19T01:16:02;100671.38;;;15.37;100.00
48053;BME280;33824;51.600;5.718;2023-09-19T01:18:47;100673.47;;;15.35;100.00
48053;BME280;33824;51.600;5.718;2023-09-19T01:21:52;100680.28;;;15.31;100.00
48053;BME280;33824;51.600;5.718;2023-09-19T01:24:53;100685.69;;;15.25;100.00
48053;BME280;33824;51.600;5.718;2023-09-19T01:29:46;100681.31;;;15.30;100.00
48053;BME280;33824;51.600;5.718;2023-09-19T01:32:16;100696.84;;;15.28;100.00
48053;BME280;33824;51.600;5.718;2023-09-19T01:34:56;100680.69;;;15.22;100.00
48053;BME280;33824;51.600;5.718;2023-09-19T01:37:24;100688.38;;;15.25;100.00
48053;BME280;33824;51.600;5.718;2023-09-19T01:39:53;100691.88;;;15.25;100.00
48053;BME280;33824;51.600;5.718;2023-09-19T01:42:44;100691.88;;;15.12;100.00
48053;BME280;33824;51.600;5.718;2023-09-19T01:47:55;100703.44;;;15.19;100.00
48053;BME280;33824;51.600;5.718;2023-09-19T01:53:14;100694.13;;;15.15;100.00
48053;BME280;33824;51.600;5.718;2023-09-19T01:55:43;100700.75;;;15.13;100.00
48053;BME280;33824;51.600;5.718;2023-09-19T01:58:21;100698.28;;;15.05;100.00
48053;BME280;33824;51.600;5.718;2023-09-19T02:00:50;100697.06;;;15.14;100.00
48053;BME280;33824;51.600;5.718;2023-09-19T02:03:17;100698.06;;;15.13;100.00
48053;BME280;33824;51.600;5.718;2023-09-19T02:05:52;100698.28;;;14.98;100.00
48053;BME280;33824;51.600;5.718;2023-09-19T02:08:20;100694.34;;;15.07;100.00
48053;BME280;33824;51.600;5.718;2023-09-19T02:10:46;100688.38;;;15.05;100.00
48053;BME280;33824;51.600;5.718;2023-09-19T02:13:18;100707.38;;;14.97;100.00
48053;BME280;33824;51.600;5.718;2023-09-19T02:15:45;100699.72;;;15.01;100.00
48053;BME280;33824;51.600;5.718;2023-09-19T02:18:12;100704.69;;;14.97;100.00
48053;BME280;33824;51.600;5.718;2023-09-19T02:20:38;100707.78;;;15.01;100.00
48053;BME280;33824;51.600;5.718;2023-09-19T02:23:04;100709.03;;;14.98;100.00
48053;BME280;33824;51.600;5.718;2023-09-19T02:25:30;100707.78;;;15.01;100.00
48053;BME280;33824;51.600;5.718;2023-09-19T02:27:57;100706.53;;;14.97;100.00
48053;BME280;33824;51.600;5.718;2023-09-19T02:30:25;100706.13;;;14.93;100.00
48053;BME280;33824;51.600;5.718;2023-09-19T02:32:51;100706.75;;;14.95;100.00
48053;BME280;33824;51.600;5.718;2023-09-19T02:35:17;100707.78;;;14.94;100.00
48053;BME280;33824;51.600;5.718;2023-09-19T02:37:45;100713.75;;;14.89;100.00
48053;BME280;33824;51.600;5.718;2023-09-19T02:40:11;100712.09;;;14.88;100.00
48053;BME280;33824;51.600;5.718;2023-09-19T02:42:48;100720.56;;;14.79;100.00
48053;BME280;33824;51.600;5.718;2023-09-19T02:45:19;100723.44;;;14.77;100.00
48053;BME280;33824;51.600;5.718;2023-09-19T02:47:47;100722.19;;;14.80;100.00
48053;BME280;33824;51.600;5.718;2023-09-19T02:50:14;100726.53;;;14.74;100.00
48053;BME280;33824;51.600;5.718;2023-09-19T02:52:43;100720.56;;;14.79;100.00
48053;BME280;33824;51.600;5.718;2023-09-19T02:55:11;100729.22;;;14.74;100.00
48053;BME280;33824;51.600;5.718;2023-09-19T02:57:37;100726.97;;;14.71;100.00
48053;BME280;33824;51.600;5.718;2023-09-19T03:00:09;100734.34;;;14.63;100.00
48053;BME280;33824;51.600;5.718;2023-09-19T03:02:36;100725.91;;;14.66;100.00
48053;BME280;33824;51.600;5.718;2023-09-19T03:05:02;100728.16;;;14.62;100.00
48053;BME280;33824;51.600;5.718;2023-09-19T03:07:28;100730.84;;;14.62;100.00
48053;BME280;33824;51.600;5.718;2023-09-19T03:09:54;100735.59;;;14.60;100.00
48053;BME280;33824;51.600;5.718;2023-09-19T03:12:20;100730.00;;;14.62;99.41
48053;BME280;33824;51.600;5.718;2023-09-19T03:14:46;100735.19;;;14.63;99.30
48053;BME280;33824;51.600;5.718;2023-09-19T03:17:11;100736.22;;;14.62;99.36
48053;BME280;33824;51.600;5.718;2023-09-19T03:19:39;100732.91;;;14.60;98.92
48053;BME280;33824;51.600;5.718;2023-09-19T03:22:05;100726.50;;;14.61;98.55
48053;BME280;33824;51.600;5.718;2023-09-19T03:24:31;100733.53;;;14.62;98.46
48053;BME280;33824;51.600;5.718;2023-09-19T03:26:59;100729.59;;;14.58;98.31
48053;BME280;33824;51.600;5.718;2023-09-19T03:29:24;100732.09;;;14.60;98.28
48053;BME280;33824;51.600;5.718;2023-09-19T03:31:50;100729.19;;;14.61;98.53
48053;BME280;33824;51.600;5.718;2023-09-19T03:34:16;100720.34;;;14.61;97.74
48053;BME280;33824;51.600;5.718;2023-09-19T03:36:42;100724.22;;;14.58;98.45
48053;BME280;33824;51.600;5.718;2023-09-19T03:39:08;100722.38;;;14.59;98.11
48053;BME280;33824;51.600;5.718;2023-09-19T03:41:33;100728.16;;;14.56;98.45
48053;BME280;33824;51.600;5.718;2023-09-19T03:44:02;100725.91;;;14.59;98.01
48053;BME280;33824;51.600;5.718;2023-09-19T03:46:28;100724.03;;;14.60;97.89
48053;BME280;33824;51.600;5.718;2023-09-19T03:48:54;100724.03;;;14.60;98.21
48053;BME280;33824;51.600;5.718;2023-09-19T03:51:20;100722.19;;;14.60;97.81
48053;BME280;33824;51.600;5.718;2023-09-19T03:53:46;100717.00;;;14.59;98.31
48053;BME280;33824;51.600;5.718;2023-09-19T03:56:14;100719.28;;;14.55;98.24
48053;BME280;33824;51.600;5.718;2023-09-19T03:58:40;100724.63;;;14.55;98.50
48053;BME280;33824;51.600;5.718;2023-09-19T04:01:08;100728.56;;;14.53;98.88
48053;BME280;33824;51.600;5.718;2023-09-19T04:03:34;100729.00;;;14.56;98.14
48053;BME280;33824;51.600;5.718;2023-09-19T04:06:11;100720.72;;;14.58;98.20
48053;BME280;33824;51.600;5.718;2023-09-19T04:08:37;100724.63;;;14.55;98.48
48053;BME280;33824;51.600;5.718;2023-09-19T04:11:02;100713.06;;;14.55;98.16
48053;BME280;33824;51.600;5.718;2023-09-19T04:13:28;100722.38;;;14.52;98.53
48053;BME280;33824;51.600;5.718;2023-09-19T04:15:55;100719.69;;;14.52;98.79
48053;BME280;33824;51.600;5.718;2023-09-19T04:18:20;100717.84;;;14.53;98.96
48053;BME280;33824;51.600;5.718;2023-09-19T04:20:49;100719.88;;;14.51;98.85
48053;BME280;33824;51.600;5.718;2023-09-19T04:23:15;100722.56;;;14.51;99.13
48053;BME280;33824;51.600;5.718;2023-09-19T04:25:41;100729.59;;;14.52;99.11
48053;BME280;33824;51.600;5.718;2023-09-19T04:28:07;100734.31;;;14.50;99.63
48053;BME280;33824;51.600;5.718;2023-09-19T04:30:32;100729.78;;;14.50;99.74
48053;BME280;33824;51.600;5.718;2023-09-19T04:32:58;100738.47;;;14.46;100.00
48053;BME280;33824;51.600;5.718;2023-09-19T04:35:24;100740.91;;;14.47;100.00
48053;BME280;33824;51.600;5.718;2023-09-19T04:37:50;100754.16;;;14.49;100.00
48053;BME280;33824;51.600;5.718;2023-09-19T04:40:16;100764.66;;;14.50;100.00
48053;BME280;33824;51.600;5.718;2023-09-19T04:42:45;100770.25;;;14.49;100.00
48053;BME280;33824;51.600;5.718;2023-09-19T04:45:11;100769.00;;;14.51;100.00
48053;BME280;33824;51.600;5.718;2023-09-19T04:47:38;100776.84;;;14.53;100.00
48053;BME280;33824;51.600;5.718;2023-09-19T04:50:08;100783.84;;;14.54;100.00
48053;BME280;33824;51.600;5.718;2023-09-19T04:52:39;100787.59;;;14.59;100.00
48053;BME280;33824;51.600;5.718;2023-09-19T04:55:17;100796.50;;;14.60;100.00
48053;BME280;33824;51.600;5.718;2023-09-19T04:57:49;100790.53;;;14.64;100.00
48053;BME280;33824;51.600;5.718;2023-09-19T05:00:17;100797.56;;;14.72;100.00
48053;BME280;33824;51.600;5.718;2023-09-19T05:02:46;100792.22;;;14.78;100.00
48053;BME280;33824;51.600;5.718;2023-09-19T05:05:12;100785.81;;;14.86;100.00
48053;BME280;33824;51.600;5.718;2023-09-19T05:07:42;100795.13;;;14.90;100.00
48053;BME280;33824;51.600;5.718;2023-09-19T05:10:09;100792.88;;;14.94;100.00
48053;BME280;33824;51.600;5.718;2023-09-19T05:12:35;100791.63;;;14.96;100.00
48053;BME280;33824;51.600;5.718;2023-09-19T05:15:05;100785.00;;;14.85;100.00
48053;BME280;33824;51.600;5.718;2023-09-19T05:17:33;100781.91;;;14.88;100.00
48053;BME280;33824;51.600;5.718;2023-09-19T05:19:59;100792.03;;;14.86;100.00
48053;BME280;33824;51.600;5.718;2023-09-19T05:22:27;100792.63;;;14.88;100.00
48053;BME280;33824;51.600;5.718;2023-09-19T05:24:52;100792.63;;;14.88;100.00
48053;BME280;33824;51.600;5.718;2023-09-19T05:27:19;100802.53;;;14.88;100.00
48053;BME280;33824;51.600;5.718;2023-09-19T05:29:46;100808.97;;;14.87;100.00
48053;BME280;33824;51.600;5.718;2023-09-19T05:32:11;100802.34;;;14.89;100.00
48053;BME280;33824;51.600;5.718;2023-09-19T05:34:37;100804.22;;;14.89;100.00
48053;BME280;33824;51.600;5.718;2023-09-19T05:37:04;100821.97;;;14.90;100.00
48053;BME280;33824;51.600;5.718;2023-09-19T05:39:33;100814.53;;;14.92;100.00
48053;BME280;33824;51.600;5.718;2023-09-19T05:41:59;100807.53;;;14.91;100.00
48053;BME280;33824;51.600;5.718;2023-09-19T05:44:26;100809.16;;;14.92;100.00
48053;BME280;33824;51.600;5.718;2023-09-19T05:46:51;100803.59;;;14.94;100.00
48053;BME280;33824;51.600;5.718;2023-09-19T05:49:17;100810.22;;;14.98;100.00
48053;BME280;33824;51.600;5.718;2023-09-19T05:51:43;100812.69;;;14.99;100.00
48053;BME280;33824;51.600;5.718;2023-09-19T05:54:09;100815.59;;;15.04;100.00
48053;BME280;33824;51.600;5.718;2023-09-19T05:56:36;100820.13;;;15.04;100.00
48053;BME280;33824;51.600;5.718;2023-09-19T05:59:02;100812.09;;;15.04;100.00
48053;BME280;33824;51.600;5.718;2023-09-19T06:01:29;100810.03;;;15.06;100.00
48053;BME280;33824;51.600;5.718;2023-09-19T06:03:56;100804.66;;;15.12;100.00
48053;BME280;33824;51.600;5.718;2023-09-19T06:06:21;100808.19;;;15.13;100.00
48053;BME280;33824;51.600;5.718;2023-09-19T06:08:47;100805.72;;;15.18;100.00
48053;BME280;33824;51.600;5.718;2023-09-19T06:11:16;100805.09;;;15.16;100.00
48053;BME280;33824;51.600;5.718;2023-09-19T06:13:41;100818.50;;;15.22;100.00
48053;BME280;33824;51.600;5.718;2023-09-19T06:16:07;100810.69;;;15.27;100.00
48053;BME280;33824;51.600;5.718;2023-09-19T06:18:32;100812.94;;;15.30;100.00
48053;BME280;33824;51.600;5.718;2023-09-19T06:20:59;100811.91;;;15.31;100.00
48053;BME280;33824;51.600;5.718;2023-09-19T06:23:25;100808.81;;;15.34;100.00
48053;BME280;33824;51.600;5.718;2023-09-19T06:25:52;100814.00;;;15.36;100.00
48053;BME280;33824;51.600;5.718;2023-09-19T06:28:18;100816.88;;;15.41;100.00
48053;BME280;33824;51.600;5.718;2023-09-19T06:30:49;100821.00;;;15.37;100.00
48053;BME280;33824;51.600;5.718;2023-09-19T06:33:15;100821.63;;;15.46;100.00
48053;BME280;33824;51.600;5.718;2023-09-19T06:35:40;100823.75;;;15.50;100.00
48053;BME280;33824;51.600;5.718;2023-09-19T06:38:07;100829.50;;;15.47;100.00
48053;BME280;33824;51.600;5.718;2023-09-19T06:40:36;100838.84;;;15.51;100.00
48053;BME280;33824;51.600;5.718;2023-09-19T06:43:01;100825.41;;;15.58;100.00
48053;BME280;33824;51.600;5.718;2023-09-19T06:45:27;100833.03;;;15.61;100.00
48053;BME280;33824;51.600;5.718;2023-09-19T06:47:53;100835.94;;;15.66;100.00
48053;BME280;33824;51.600;5.718;2023-09-19T06:50:23;100844.41;;;15.76;100.00
48053;BME280;33824;51.600;5.718;2023-09-19T06:52:50;100839.88;;;15.76;100.00
48053;BME280;33824;51.600;5.718;2023-09-19T06:55:18;100847.13;;;15.82;100.00
48053;BME280;33824;51.600;5.718;2023-09-19T06:57:45;100852.25;;;15.84;100.00
48053;BME280;33824;51.600;5.718;2023-09-19T07:00:12;100850.00;;;15.88;100.00
48053;BME280;33824;51.600;5.718;2023-09-19T07:03:00;100836.75;;;15.79;100.00
48053;BME280;33824;51.600;5.718;2023-09-19T07:05:33;100840.47;;;15.92;100.00
48053;BME280;33824;51.600;5.718;2023-09-19T07:07:59;100843.53;;;16.02;100.00
48053;BME280;33824;51.600;5.718;2023-09-19T07:10:25;100838.19;;;16.08;100.00
48053;BME280;33824;51.600;5.718;2023-09-19T07:13:04;100833.84;;;16.01;100.00
48053;BME280;33824;51.600;5.718;2023-09-19T07:15:32;100827.41;;;16.08;100.00
48053;BME280;33824;51.600;5.718;2023-09-19T07:18:04;100840.84;;;16.15;100.00
48053;BME280;33824;51.600;5.718;2023-09-19T07:20:32;100840.81;;;16.21;100.00
48053;BME280;33824;51.600;5.718;2023-09-19T07:22:58;100841.22;;;16.31;100.00
48053;BME280;33824;51.600;5.718;2023-09-19T07:25:27;100851.16;;;16.31;100.00
48053;BME280;33824;51.600;5.718;2023-09-19T07:27:55;100846.38;;;16.33;100.00
48053;BME280;33824;51.600;5.718;2023-09-19T07:30:21;100856.31;;;16.32;100.00
48053;BME280;33824;51.600;5.718;2023-09-19T07:32:47;100855.47;;;16.45;99.66
48053;BME280;33824;51.600;5.718;2023-09-19T07:35:13;100850.28;;;16.50;99.84
48053;BME280;33824;51.600;5.718;2023-09-19T07:37:40;100842.38;;;16.55;99.59
48053;BME280;33824;51.600;5.718;2023-09-19T07:40:06;100845.94;;;16.62;99.07
48053;BME280;33824;51.600;5.718;2023-09-19T07:42:35;100848.38;;;16.64;99.01
48053;BME280;33824;51.600;5.718;2023-09-19T07:45:05;100849.66;;;16.61;99.48
48053;BME280;33824;51.600;5.718;2023-09-19T07:47:30;100854.00;;;16.62;99.03
48053;BME280;33824;51.600;5.718;2023-09-19T07:49:58;100858.03;;;16.85;98.81
48053;BME280;33824;51.600;5.718;2023-09-19T07:52:24;100852.81;;;16.90;98.49
48053;BME280;33824;51.600;5.718;2023-09-19T07:54:50;100853.97;;;17.07;97.83
48053;BME280;33824;51.600;5.718;2023-09-19T07:57:15;100859.72;;;17.17;97.03
48053;BME280;33824;51.600;5.718;2023-09-19T07:59:41;100857.41;;;17.27;96.55
48053;BME280;33824;51.600;5.718;2023-09-19T08:02:08;100855.03;;;17.37;95.72
48053;BME280;33824;51.600;5.718;2023-09-19T08:04:35;100847.53;;;17.46;95.36
48053;BME280;33824;51.600;5.718;2023-09-19T08:07:01;100852.66;;;17.54;95.57
48053;BME280;33824;51.600;5.718;2023-09-19T08:09:29;100864.38;;;17.66;95.28
48053;BME280;33824;51.600;5.718;2023-09-19T08:11:59;100853.97;;;17.69;95.33
48053;BME280;33824;51.600;5.718;2023-09-19T08:14:28;100870.34;;;17.74;93.96
48053;BME280;33824;51.600;5.718;2023-09-19T08:16:57;100863.50;;;17.72;93.12
48053;BME280;33824;51.600;5.718;2023-09-19T08:19:24;100846.81;;;17.82;93.24
48053;BME280;33824;51.600;5.718;2023-09-19T08:21:57;100839.63;;;17.76;92.32
48053;BME280;33824;51.600;5.718;2023-09-19T08:24:28;100854.72;;;17.83;92.24
48053;BME280;33824;51.600;5.718;2023-09-19T08:26:55;100861.84;;;17.96;92.73
48053;BME280;33824;51.600;5.718;2023-09-19T08:29:24;100849.44;;;18.13;91.84
48053;BME280;33824;51.600;5.718;2023-09-19T08:31:55;100844.31;;;18.05;91.79
48053;BME280;33824;51.600;5.718;2023-09-19T08:34:22;100852.31;;;18.18;91.16
48053;BME280;33824;51.600;5.718;2023-09-19T08:36:50;100829.50;;;18.14;90.07
48053;BME280;33824;51.600;5.718;2023-09-19T08:39:16;100842.84;;;18.27;90.84
48053;BME280;33824;51.600;5.718;2023-09-19T08:41:42;100844.03;;;18.49;90.34
48053;BME280;33824;51.600;5.718;2023-09-19T08:44:08;100854.47;;;18.46;89.29
48053;BME280;33824;51.600;5.718;2023-09-19T08:46:37;100848.88;;;18.65;89.06
48053;BME280;33824;51.600;5.718;2023-09-19T08:52:28;100853.81;;;18.32;88.56
48053;BME280;33824;51.600;5.718;2023-09-19T08:54:59;100856.59;;;18.62;88.73
48053;BME280;33824;51.600;5.718;2023-09-19T08:57:33;100853.06;;;18.61;88.12
48053;BME280;33824;51.600;5.718;2023-09-19T09:00:02;100848.22;;;19.00;87.84
48053;BME280;33824;51.600;5.718;2023-09-19T09:02:31;100851.97;;;19.29;85.97
48053;BME280;33824;51.600;5.718;2023-09-19T09:04:59;100849.63;;;19.02;86.02
48053;BME280;33824;51.600;5.718;2023-09-19T09:07:25;100849.19;;;18.87;86.23
48053;BME280;33824;51.600;5.718;2023-09-19T09:09:52;100850.31;;;19.28;85.55
48053;BME280;33824;51.600;5.718;2023-09-19T09:12:18;100847.09;;;19.49;84.54
48053;BME280;33824;51.600;5.718;2023-09-19T09:14:45;100842.63;;;19.43;82.70
48053;BME280;33824;51.600;5.718;2023-09-19T09:17:21;100854.94;;;19.39;83.23
48053;BME280;33824;51.600;5.718;2023-09-19T09:19:46;100855.22;;;19.49;81.93
48053;BME280;33824;51.600;5.718;2023-09-19T09:22:15;100858.22;;;19.41;81.96
48053;BME280;33824;51.600;5.718;2023-09-19T09:24:53;100857.38;;;19.29;81.84
48053;BME280;33824;51.600;5.718;2023-09-19T09:27:20;100841.97;;;19.59;81.85
48053;BME280;33824;51.600;5.718;2023-09-19T09:29:48;100852.06;;;19.63;82.37
48053;BME280;33824;51.600;5.718;2023-09-19T09:32:24;100849.63;;;19.74;82.03
48053;BME280;33824;51.600;5.718;2023-09-19T09:34:55;100850.44;;;19.62;80.26
48053;BME280;33824;51.600;5.718;2023-09-19T09:37:22;100846.44;;;19.77;82.03
48053;BME280;33824;51.600;5.718;2023-09-19T09:39:52;100845.50;;;19.94;81.32
48053;BME280;33824;51.600;5.718;2023-09-19T09:42:35;100833.50;;;19.79;80.23
48053;BME280;33824;51.600;5.718;2023-09-19T09:45:21;100812.66;;;19.91;80.59
48053;BME280;33824;51.600;5.718;2023-09-19T09:48:00;100819.94;;;20.13;80.25
48053;BME280;33824;51.600;5.718;2023-09-19T09:50:36;100821.38;;;20.16;80.29
48053;BME280;33824;51.600;5.718;2023-09-19T09:53:30;100823.84;;;20.18;79.81
48053;BME280;33824;51.600;5.718;2023-09-19T09:56:08;100836.53;;;20.17;78.97
48053;BME280;33824;51.600;5.718;2023-09-19T09:58:51;100817.94;;;20.09;77.68
48053;BME280;33824;51.600;5.718;2023-09-19T10:01:21;100829.88;;;20.31;77.08
48053;BME280;33824;51.600;5.718;2023-09-19T10:03:57;100839.38;;;20.10;75.44
48053;BME280;33824;51.600;5.718;2023-09-19T10:06:22;100824.44;;;20.08;76.14
48053;BME280;33824;51.600;5.718;2023-09-19T10:09:05;100832.56;;;19.96;75.06
48053;BME280;33824;51.600;5.718;2023-09-19T10:11:43;100828.44;;;20.05;75.28
48053;BME280;33824;51.600;5.718;2023-09-19T10:14:11;100821.81;;;20.48;76.13
48053;BME280;33824;51.600;5.718;2023-09-19T10:16:48;100834.69;;;20.29;74.49
48053;BME280;33824;51.600;5.718;2023-09-19T10:19:30;100821.25;;;20.46;74.49
48053;BME280;33824;51.600;5.718;2023-09-19T10:22:01;100826.69;;;20.74;74.12
48053;BME280;33824;51.600;5.718;2023-09-19T10:24:28;100824.19;;;20.84;73.56
48053;BME280;33824;51.600;5.718;2023-09-19T10:26:55;100821.84;;;21.04;73.73
48053;BME280;33824;51.600;5.718;2023-09-19T10:29:21;100821.41;;;21.24;74.65
48053;BME280;33824;51.600;5.718;2023-09-19T10:31:47;100820.19;;;21.32;71.86
48053;BME280;33824;51.600;5.718;2023-09-19T10:34:17;100815.03;;;21.02;71.58
48053;BME280;33824;51.600;5.718;2023-09-19T10:36:44;100821.25;;;20.74;72.66
48053;BME280;33824;51.600;5.718;2023-09-19T10:39:10;100814.47;;;21.00;73.01
48053;BME280;33824;51.600;5.718;2023-09-19T10:41:37;100816.06;;;21.01;72.45
48053;BME280;33824;51.600;5.718;2023-09-19T10:44:04;100822.44;;;21.06;71.33
48053;BME280;33824;51.600;5.718;2023-09-19T10:46:32;100820.59;;;20.95;70.91
48053;BME280;33824;51.600;5.718;2023-09-19T10:48:59;100820.25;;;20.92;72.18
48053;BME280;33824;51.600;5.718;2023-09-19T10:51:29;100821.09;;;20.92;72.13
48053;BME280;33824;51.600;5.718;2023-09-19T10:54:05;100812.03;;;20.87;72.08
48053;BME280;33824;51.600;5.718;2023-09-19T10:56:36;100810.81;;;20.94;70.35
48053;BME280;33824;51.600;5.718;2023-09-19T10:59:13;100814.59;;;20.93;71.43
48053;BME280;33824;51.600;5.718;2023-09-19T11:01:46;100812.03;;;20.87;69.84
48053;BME280;33824;51.600;5.718;2023-09-19T11:04:32;100819.28;;;20.98;69.27
48053;BME280;33824;51.600;5.718;2023-09-19T11:07:14;100815.44;;;21.22;71.35
48053;BME280;33824;51.600;5.718;2023-09-19T11:09:44;100800.47;;;21.36;69.52
48053;BME280;33824;51.600;5.718;2023-09-19T11:15:08;100794.38;;;21.46;70.47
48053;BME280;33824;51.600;5.718;2023-09-19T11:17:37;100794.81;;;21.54;69.40
48053;BME280;33824;51.600;5.718;2023-09-19T11:30:38;100777.63;;;21.32;69.16
48053;BME280;33824;51.600;5.718;2023-09-19T11:36:08;100757.00;;;21.48;68.10
48053;BME280;33824;51.600;5.718;2023-09-19T11:46:26;100748.38;;;21.89;67.02
48053;BME280;33824;51.600;5.718;2023-09-19T11:48:52;100753.03;;;22.11;68.13
48053;BME280;33824;51.600;5.718;2023-09-19T11:51:20;100737.31;;;22.13;65.21
48053;BME280;33824;51.600;5.718;2023-09-19T11:53:50;100744.91;;;22.32;64.40
48053;BME280;33824;51.600;5.718;2023-09-19T11:56:18;100738.50;;;22.00;62.68
48053;BME280;33824;51.600;5.718;2023-09-19T11:58:45;100739.91;;;22.03;64.17
48053;BME280;33824;51.600;5.718;2023-09-19T12:01:14;100726.72;;;22.33;64.86
48053;BME280;33824;51.600;5.718;2023-09-19T12:03:46;100718.09;;;22.41;64.13
48053;BME280;33824;51.600;5.718;2023-09-19T12:06:15;100710.44;;;22.38;64.46
48053;BME280;33824;51.600;5.718;2023-09-19T12:08:44;100716.84;;;22.27;64.71
48053;BME280;33824;51.600;5.718;2023-09-19T12:11:18;100706.31;;;22.09;61.61
48053;BME280;33824;51.600;5.718;2023-09-19T12:13:46;100719.56;;;22.27;64.17
48053;BME280;33824;51.600;5.718;2023-09-19T12:16:21;100723.03;;;22.00;62.62
48053;BME280;33824;51.600;5.718;2023-09-19T12:18:48;100715.19;;;22.26;62.99
48053;BME280;33824;51.600;5.718;2023-09-19T12:21:41;100726.50;;;21.96;63.43
48053;BME280;33824;51.600;5.718;2023-09-19T12:24:11;100717.28;;;21.59;64.02
48053;BME280;33824;51.600;5.718;2023-09-19T12:26:43;100725.69;;;21.95;64.07
48053;BME280;33824;51.600;5.718;2023-09-19T12:29:19;100721.28;;;22.33;65.00
48053;BME280;33824;51.600;5.718;2023-09-19T12:31:55;100722.88;;;22.29;64.17
48053;BME280;33824;51.600;5.718;2023-09-19T12:34:30;100719.88;;;22.30;64.03
48053;BME280;33824;51.600;5.718;2023-09-19T12:37:12;100731.97;;;22.18;63.61
48053;BME280;33824;51.600;5.718;2023-09-19T12:39:42;100721.97;;;22.23;64.66
48053;BME280;33824;51.600;5.718;2023-09-19T12:42:12;100732.25;;;21.99;64.09
48053;BME280;33824;51.600;5.718;2023-09-19T12:44:43;100725.19;;;21.98;65.25
48053;BME280;33824;51.600;5.718;2023-09-19T12:47:13;100732.00;;;21.84;65.22
48053;BME280;33824;51.600;5.718;2023-09-19T12:50:13;100727.25;;;21.36;65.69
48053;BME280;33824;51.600;5.718;2023-09-19T12:52:46;100723.75;;;21.58;67.49
48053;BME280;33824;51.600;5.718;2023-09-19T12:55:31;100732.94;;;21.18;66.93
48053;BME280;33824;51.600;5.718;2023-09-19T12:58:13;100728.66;;;21.22;67.17
48053;BME280;33824;51.600;5.718;2023-09-19T13:00:45;100739.84;;;21.26;68.03
48053;BME280;33824;51.600;5.718;2023-09-19T13:03:18;100734.28;;;21.54;68.71
48053;BME280;33824;51.600;5.718;2023-09-19T13:05:50;100733.38;;;21.65;67.81
48053;BME280;33824;51.600;5.718;2023-09-19T13:08:21;100732.28;;;21.83;68.34
48053;BME280;33824;51.600;5.718;2023-09-19T13:13:25;100721.53;;;22.10;68.13
48053;BME280;33824;51.600;5.718;2023-09-19T13:15:53;100726.44;;;22.34;67.15
48053;BME280;33824;51.600;5.718;2023-09-19T13:18:19;100724.03;;;22.60;66.68
48053;BME280;33824;51.600;5.718;2023-09-19T13:21:05;100719.13;;;22.35;64.87
48053;BME280;33824;51.600;5.718;2023-09-19T13:23:35;100726.00;;;22.42;65.76
48053;BME280;33824;51.600;5.718;2023-09-19T13:26:02;100742.13;;;22.27;66.33
48053;BME280;33824;51.600;5.718;2023-09-19T13:28:29;100742.13;;;22.06;66.06
48053;BME280;33824;51.600;5.718;2023-09-19T13:30:55;100739.34;;;21.84;67.35
48053;BME280;33824;51.600;5.718;2023-09-19T13:33:20;100732.78;;;21.80;68.92
48053;BME280;33824;51.600;5.718;2023-09-19T13:35:46;100737.38;;;21.79;68.85